createdAt,value
2022-08-05T00:00:48.426Z,101347.31
2022-08-05T00:03:20.645Z,101338.75
2022-08-05T00:06:05.447Z,101342.16
2022-08-05T00:08:40.251Z,101340.75
2022-08-05T00:11:20.605Z,101331.63
2022-08-05T00:13:59.876Z,101330.22
2022-08-05T00:16:35.739Z,101335.38
2022-08-05T00:19:07.683Z,101328.97
2022-08-05T00:21:36.319Z,101335.53
2022-08-05T00:24:10.995Z,101327.72
2022-08-05T00:26:50.803Z,101322.56
2022-08-05T00:29:22.541Z,101326.03
2022-08-05T00:32:12.410Z,101323.75
2022-08-05T00:35:05.306Z,101321.78
2022-08-05T00:37:50.856Z,101321.66
2022-08-05T00:40:27.484Z,101326.38
2022-08-05T00:42:59.854Z,101317.84
2022-08-05T00:45:38.419Z,101326.97
2022-08-05T00:48:12.603Z,101327.50
2022-08-05T00:50:46.570Z,101326.78
2022-08-05T00:54:00.520Z,101326.38
2022-08-05T00:56:07.829Z,101318.97
2022-08-05T00:58:37.096Z,101317.28
2022-08-05T01:01:08.859Z,101311.03
2022-08-05T01:03:38.896Z,101313.03
2022-08-05T01:06:14.134Z,101319.56
2022-08-05T01:08:47.425Z,101313.31
2022-08-05T01:11:22.567Z,101310.63
2022-08-05T01:14:09.030Z,101309.91
2022-08-05T01:16:48.456Z,101313.03
2022-08-05T01:20:02.149Z,101309.19
2022-08-05T01:22:47.357Z,101300.78
2022-08-05T01:25:53.731Z,101296.81
2022-08-05T01:28:33.024Z,101298.78
2022-08-05T01:31:06.587Z,101297.78
2022-08-05T01:33:49.160Z,101299.63
2022-08-05T01:36:28.272Z,101294.22
2022-08-05T01:39:01.056Z,101295.06
2022-08-05T01:41:34.384Z,101299.63
2022-08-05T01:44:09.948Z,101292.53
2022-08-05T01:46:46.489Z,101289.09
2022-08-05T01:49:23.604Z,101282.25
2022-08-05T01:51:59.036Z,101284.84
2022-08-05T01:54:45.913Z,101286.25
2022-08-05T01:58:12.463Z,101286.81
2022-08-05T02:00:12.316Z,101280.13
2022-08-05T02:02:51.156Z,101281.84
2022-08-05T02:05:29.845Z,101283.22
2022-08-05T02:08:01.723Z,101289.03
2022-08-05T02:10:36.189Z,101286.22
2022-08-05T02:13:16.305Z,101285.38
2022-08-05T02:15:51.272Z,101286.78
2022-08-05T02:18:31.485Z,101283.81
2022-08-05T02:21:13.262Z,101285.94
2022-08-05T02:23:48.495Z,101291.34
2022-08-05T02:26:26.517Z,101288.94
2022-08-05T02:28:58.328Z,101288.50
2022-08-05T02:31:34.803Z,101287.47
2022-08-05T02:34:09.945Z,101283.50
2022-08-05T02:36:43.992Z,101284.09
2022-08-05T02:39:14.667Z,101286.50
2022-08-05T02:42:00.953Z,101286.94
2022-08-05T02:44:33.268Z,101283.69
2022-08-05T02:47:06.621Z,101284.69
2022-08-05T02:49:40.591Z,101288.53
2022-08-05T02:52:13.578Z,101295.94
2022-08-05T02:55:05.214Z,101294.22
2022-08-05T02:58:10.465Z,101287.66
2022-08-05T03:00:26.987Z,101289.78
2022-08-05T03:02:59.562Z,101286.53
2022-08-05T03:06:56.816Z,101283.84
2022-08-05T03:08:27.097Z,101281.13
2022-08-05T03:11:53.288Z,101277.56
2022-08-05T03:13:52.279Z,101280.13
2022-08-05T03:16:32.537Z,101280.16
2022-08-05T03:19:12.731Z,101279.44
2022-08-05T03:21:49.341Z,101280.28
2022-08-05T03:24:27.562Z,101280.28
2022-08-05T03:27:00.184Z,101286.53
2022-08-05T03:29:45.301Z,101283.38
2022-08-05T03:32:20.823Z,101279.66
2022-08-05T03:35:01.757Z,101278.97
2022-08-05T03:37:41.657Z,101278.97
2022-08-05T03:40:31.477Z,101283.38
2022-08-05T03:43:58.688Z,101286.16
2022-08-05T03:45:55.131Z,101276.75
2022-08-05T03:48:28.958Z,101279.84
2022-08-05T03:52:38.328Z,101280.81
2022-08-05T03:55:50.403Z,101284.38
2022-08-05T03:56:54.526Z,101292.50
2022-08-05T03:59:47.540Z,101278.66
2022-08-05T04:02:37.422Z,101272.16
2022-08-05T04:05:11.280Z,101276.81
2022-08-05T04:07:46.759Z,101284.34
2022-08-05T04:10:32.083Z,101284.59
2022-08-05T04:13:07.220Z,101280.81
2022-08-05T04:15:36.754Z,101287.44
2022-08-05T04:18:09.721Z,101290.91
2022-08-05T04:20:41.401Z,101291.44
2022-08-05T04:23:16.203Z,101290.13
2022-08-05T04:25:57.149Z,101287.16
2022-08-05T04:28:31.659Z,101286.00
2022-08-05T04:31:01.365Z,101289.63
2022-08-05T04:33:54.614Z,101289.69
2022-08-05T04:36:45.619Z,101285.69
2022-08-05T04:39:10.824Z,101289.34
2022-08-05T04:41:41.821Z,101282.44
2022-08-05T04:44:10.430Z,101279.78
2022-08-05T04:46:39.603Z,101277.97
2022-08-05T04:49:12.214Z,101278.53
2022-08-05T04:51:44.548Z,101277.25
2022-08-05T04:54:15.543Z,101282.75
2022-08-05T04:56:44.265Z,101274.97
2022-08-05T04:59:22.415Z,101286.69
2022-08-05T05:02:07.504Z,101279.06
2022-08-05T05:04:51.490Z,101272.59
2022-08-05T05:07:23.921Z,101281.25
2022-08-05T05:10:01.972Z,101277.22
2022-08-05T05:12:31.184Z,101280.59
2022-08-05T05:14:59.973Z,101286.16
2022-08-05T05:17:55.916Z,101275.75
2022-08-05T05:20:28.304Z,101274.50
2022-08-05T05:22:57.930Z,101280.28
2022-08-05T05:25:33.042Z,101277.50
2022-08-05T05:28:09.921Z,101279.31
2022-08-05T05:30:39.184Z,101280.44
2022-08-05T05:33:16.618Z,101287.03
2022-08-05T05:35:47.555Z,101287.75
2022-08-05T05:38:22.780Z,101293.78
2022-08-05T05:40:57.882Z,101292.00
2022-08-05T05:43:56.420Z,101300.44
2022-08-05T05:46:18.137Z,101293.50
2022-08-05T05:48:49.133Z,101292.06
2022-08-05T05:51:22.462Z,101290.28
2022-08-05T05:53:57.193Z,101296.91
2022-08-05T05:56:32.347Z,101293.72
2022-08-05T05:59:05.198Z,101300.78
2022-08-05T06:01:38.145Z,101297.69
2022-08-05T06:04:11.350Z,101290.97
2022-08-05T06:06:42.790Z,101299.22
2022-08-05T06:09:17.593Z,101289.25
2022-08-05T06:12:02.006Z,101289.75
2022-08-05T06:14:31.772Z,101286.56
2022-08-05T06:17:21.974Z,101293.13
2022-08-05T06:19:57.058Z,101298.22
2022-08-05T06:22:30.281Z,101299.66
2022-08-05T06:25:24.346Z,101293.53
2022-08-05T06:28:09.469Z,101292.59
2022-08-05T06:30:40.456Z,101290.31
2022-08-05T06:33:10.863Z,101281.81
2022-08-05T06:36:08.077Z,101288.56
2022-08-05T06:38:36.134Z,101279.09
2022-08-05T06:41:07.954Z,101277.16
2022-08-05T06:43:57.249Z,101279.09
2022-08-05T06:46:30.240Z,101274.69
2022-08-05T06:49:01.307Z,101280.31
2022-08-05T06:51:31.431Z,101266.56
2022-08-05T06:54:02.071Z,101278.22
2022-08-05T06:56:34.853Z,101276.53
2022-08-05T06:59:09.626Z,101275.94
2022-08-05T07:01:42.370Z,101283.34
2022-08-05T07:04:11.067Z,101279.97
2022-08-05T07:06:43.002Z,101275.53
2022-08-05T07:09:11.762Z,101277.44
2022-08-05T07:11:45.517Z,101268.16
2022-08-05T07:14:39.019Z,101277.84
2022-08-05T07:18:01.974Z,101274.66
2022-08-05T07:20:31.305Z,101272.97
2022-08-05T07:22:46.128Z,101268.72
2022-08-05T07:25:53.976Z,101274.69
2022-08-05T07:28:08.383Z,101268.69
2022-08-05T07:30:43.187Z,101273.94
2022-08-05T07:33:16.388Z,101274.19
2022-08-05T07:36:01.693Z,101261.41
2022-08-05T07:38:43.167Z,101265.28
2022-08-05T07:42:07.128Z,101269.72
2022-08-05T07:44:14.123Z,101265.06
2022-08-05T07:46:50.510Z,101260.81
2022-08-05T07:49:20.749Z,101261.09
2022-08-05T07:51:53.656Z,101265.13
2022-08-05T07:54:30.582Z,101267.88
2022-08-05T07:57:22.424Z,101264.91
2022-08-05T07:59:51.490Z,101256.66
2022-08-05T08:02:26.299Z,101262.81
2022-08-05T08:04:57.064Z,101256.03
2022-08-05T08:07:28.506Z,101261.53
2022-08-05T08:09:57.728Z,101261.97
2022-08-05T08:12:38.037Z,101259.22
2022-08-05T08:15:16.225Z,101258.59
2022-08-05T08:17:50.730Z,101260.06
2022-08-05T08:20:59.790Z,101253.03
2022-08-05T08:24:00.969Z,101256.41
2022-08-05T08:26:04.605Z,101250.50
2022-08-05T08:28:36.774Z,101252.19
2022-08-05T08:31:15.134Z,101246.31
2022-08-05T08:33:51.401Z,101243.75
2022-08-05T08:36:29.554Z,101241.38
2022-08-05T08:39:15.006Z,101241.09
2022-08-05T08:41:51.899Z,101238.38
2022-08-05T08:45:18.255Z,101244.69
2022-08-05T08:48:06.878Z,101244.19
2022-08-05T08:50:31.603Z,101252.38
2022-08-05T08:53:12.323Z,101239.88
2022-08-05T08:56:04.048Z,101240.72
2022-08-05T08:58:37.507Z,101231.16
2022-08-05T09:01:15.924Z,101235.75
2022-08-05T09:03:47.584Z,101236.34
2022-08-05T09:06:21.144Z,101238.91
2022-08-05T09:08:53.168Z,101239.25
2022-08-05T09:11:53.781Z,101244.94
2022-08-05T09:14:57.114Z,101248.91
2022-08-05T09:16:59.688Z,101238.59
2022-08-05T09:19:36.799Z,101229.13
2022-08-05T09:22:30.942Z,101240.16
2022-08-05T09:25:13.855Z,101237.16
2022-08-05T09:28:05.055Z,101227.19
2022-08-05T09:30:35.669Z,101229.72
2022-08-05T09:33:07.945Z,101223.06
2022-08-05T09:35:36.822Z,101220.53
2022-08-05T09:38:12.289Z,101221.31
2022-08-05T09:40:53.582Z,101222.09
2022-08-05T09:43:41.207Z,101221.44
2022-08-05T09:46:28.459Z,101221.91
2022-08-05T09:49:07.024Z,101222.13
2022-08-05T09:51:38.393Z,101226.53
2022-08-05T09:54:11.619Z,101220.69
2022-08-05T09:56:51.600Z,101219.41
2022-08-05T09:59:27.686Z,101214.16
2022-08-05T10:01:58.156Z,101206.53
2022-08-05T10:04:38.609Z,101201.22
2022-08-05T10:07:20.755Z,101209.81
2022-08-05T10:10:14.313Z,101200.94
2022-08-05T10:12:49.708Z,101200.19
2022-08-05T10:15:25.780Z,101205.78
2022-08-05T10:18:23.100Z,101194.97
2022-08-05T10:20:54.121Z,101196.66
2022-08-05T10:23:50.860Z,101190.53
2022-08-05T10:26:17.406Z,101192.63
2022-08-05T10:28:47.362Z,101192.50
2022-08-05T10:32:49.582Z,101188.88
2022-08-05T10:34:07.864Z,101185.75
2022-08-05T10:36:37.696Z,101190.41
2022-08-05T10:39:15.326Z,101187.41
2022-08-05T10:42:03.304Z,101182.59
2022-08-05T10:44:33.897Z,101185.25
2022-08-05T10:47:26.830Z,101180.44
2022-08-05T10:50:32.526Z,101164.44
2022-08-05T10:53:00.128Z,101177.88
2022-08-05T10:55:38.597Z,101165.22
2022-08-05T10:58:21.730Z,101156.59
2022-08-05T11:01:08.653Z,101163.59
2022-08-05T11:04:01.932Z,101162.28
2022-08-05T11:06:31.134Z,101157.19
2022-08-05T11:09:17.015Z,101153.38
2022-08-05T11:11:52.844Z,101151.09
2022-08-05T11:14:57.606Z,101144.69
2022-08-05T11:18:00.020Z,101156.75
2022-08-05T11:20:46.414Z,101142.50
2022-08-05T11:24:04.387Z,101144.06
2022-08-05T11:26:28.731Z,101137.22
2022-08-05T11:29:11.616Z,101143.84
2022-08-05T11:31:57.937Z,101139.19
2022-08-05T11:34:51.446Z,101128.06
2022-08-05T11:38:29.890Z,101125.00
2022-08-05T11:41:36.799Z,101135.94
2022-08-05T11:44:06.418Z,101124.91
2022-08-05T11:47:09.422Z,101119.97
2022-08-05T11:49:33.755Z,101113.00
2022-08-05T11:52:08.433Z,101115.78
2022-08-05T11:54:43.408Z,101113.31
2022-08-05T11:57:39.274Z,101111.56
2022-08-05T12:00:01.265Z,101117.41
2022-08-05T12:02:40.413Z,101112.88
2022-08-05T12:05:36.468Z,101112.03
2022-08-05T12:08:18.196Z,101106.75
2022-08-05T12:10:49.588Z,101113.00
2022-08-05T12:13:47.803Z,101105.06
2022-08-05T12:16:14.532Z,101108.31
2022-08-05T12:18:52.261Z,101110.47
2022-08-05T12:21:26.865Z,101093.44
2022-08-05T12:24:04.352Z,101098.47
2022-08-05T12:26:36.252Z,101091.72
2022-08-05T12:29:09.606Z,101089.81
2022-08-05T12:31:48.207Z,101092.53
2022-08-05T12:34:23.539Z,101081.44
2022-08-05T12:36:55.989Z,101082.16
2022-08-05T12:39:34.237Z,101074.84
2022-08-05T12:42:04.572Z,101074.59
2022-08-05T12:44:37.352Z,101074.31
2022-08-05T12:47:12.726Z,101074.81
2022-08-05T12:50:03.201Z,101080.59
2022-08-05T12:52:39.014Z,101074.97
2022-08-05T12:55:25.559Z,101071.00
2022-08-05T12:58:52.742Z,101060.69
2022-08-05T13:02:02.521Z,101054.06
2022-08-05T13:03:43.216Z,101054.38
2022-08-05T13:06:17.334Z,101052.22
2022-08-05T13:08:51.762Z,101054.06
2022-08-05T13:11:46.955Z,101059.69
2022-08-05T13:14:35.892Z,101053.00
2022-08-05T13:17:11.346Z,101051.19
2022-08-05T13:19:52.799Z,101049.88
2022-08-05T13:22:28.105Z,101042.41
2022-08-05T13:25:05.303Z,101043.59
2022-08-05T13:27:37.900Z,101029.88
2022-08-05T13:30:32.788Z,101024.97
2022-08-05T13:33:01.269Z,101012.38
2022-08-05T13:35:43.327Z,101021.75
2022-08-05T13:38:28.214Z,101016.72
2022-08-05T13:41:05.175Z,101025.88
2022-08-05T13:43:45.446Z,101022.00
2022-08-05T13:46:37.989Z,101022.03
2022-08-05T13:49:12.997Z,101018.16
2022-08-05T13:51:46.678Z,101007.84
2022-08-05T13:54:17.093Z,101010.47
2022-08-05T13:56:52.011Z,101013.25
2022-08-05T13:59:23.840Z,101011.78
2022-08-05T14:01:58.313Z,101001.44
2022-08-05T14:04:51.597Z,101007.22
2022-08-05T14:07:26.218Z,100999.06
2022-08-05T14:10:13.031Z,101003.16
2022-08-05T14:12:48.668Z,100989.34
2022-08-05T14:16:08.320Z,100988.59
2022-08-05T14:18:14.680Z,100988.00
2022-08-05T14:20:48.020Z,100986.69
2022-08-05T14:23:24.026Z,100988.09
2022-08-05T14:25:58.979Z,100989.19
2022-08-05T14:28:30.564Z,100990.16
2022-08-05T14:31:00.891Z,100989.19
2022-08-05T14:33:56.537Z,100984.03
2022-08-05T14:36:23.201Z,100985.34
2022-08-05T14:38:53.321Z,100972.88
2022-08-05T14:41:22.879Z,100966.16
2022-08-05T14:44:00.073Z,100970.34
2022-08-05T14:46:34.983Z,100977.19
2022-08-05T14:49:07.427Z,100975.38
2022-08-05T14:51:38.035Z,100979.47
2022-08-05T14:54:29.678Z,100969.63
2022-08-05T14:56:56.665Z,100972.38
2022-08-05T14:59:29.418Z,100976.84
2022-08-05T15:02:14.725Z,100970.34
2022-08-05T15:04:47.896Z,100966.50
2022-08-05T15:08:06.346Z,100959.22
2022-08-05T15:10:09.530Z,100965.56
2022-08-05T15:12:59.408Z,100967.72
2022-08-05T15:15:55.648Z,100959.94
2022-08-05T15:18:18.727Z,100964.25
2022-08-05T15:20:47.522Z,100959.94
2022-08-05T15:23:16.504Z,100963.16
2022-08-05T15:25:52.136Z,100960.03
2022-08-05T15:28:27.676Z,100958.59
2022-08-05T15:30:58.300Z,100955.84
2022-08-05T15:34:05.291Z,100950.91
2022-08-05T15:36:24.189Z,100950.41
2022-08-05T15:40:41.148Z,100950.06
2022-08-05T15:41:57.907Z,100953.56
2022-08-05T15:44:30.267Z,100945.72
2022-08-05T15:47:04.553Z,100942.88
2022-08-05T15:49:52.045Z,100938.31
2022-08-05T15:52:51.674Z,100942.16
2022-08-05T15:55:16.036Z,100938.09
2022-08-05T15:57:48.841Z,100938.53
2022-08-05T16:00:26.229Z,100941.31
2022-08-05T16:03:03.577Z,100937.44
2022-08-05T16:05:32.329Z,100935.28
2022-08-05T16:08:01.061Z,100938.06
2022-08-05T16:10:30.073Z,100933.03
2022-08-05T16:12:59.826Z,100927.16
2022-08-05T16:15:32.705Z,100934.22
2022-08-05T16:18:08.983Z,100924.75
2022-08-05T16:20:38.141Z,100920.78
2022-08-05T16:23:08.605Z,100927.66
2022-08-05T16:25:38.113Z,100927.31
2022-08-05T16:28:09.815Z,100922.88
2022-08-05T16:30:39.290Z,100914.94
2022-08-05T16:33:11.932Z,100919.72
2022-08-05T16:35:44.783Z,100917.53
2022-08-05T16:38:24.279Z,100920.00
2022-08-05T16:41:00.082Z,100910.63
2022-08-05T16:43:32.573Z,100913.50
2022-08-05T16:46:09.385Z,100915.72
2022-08-05T16:48:53.165Z,100920.25
2022-08-05T16:51:24.565Z,100914.38
2022-08-05T16:54:05.897Z,100909.75
2022-08-05T16:56:44.347Z,100902.06
2022-08-05T16:59:15.626Z,100900.16
2022-08-05T17:01:53.727Z,100900.63
2022-08-05T17:04:28.013Z,100900.91
2022-08-05T17:07:01.281Z,100903.41
2022-08-05T17:09:56.006Z,100899.16
2022-08-05T17:12:22.707Z,100896.56
2022-08-05T17:15:10.226Z,100897.75
2022-08-05T17:17:44.729Z,100900.66
2022-08-05T17:20:16.408Z,100900.50
2022-08-05T17:22:45.237Z,100902.06
2022-08-05T17:25:39.227Z,100902.81
2022-08-05T17:28:09.931Z,100894.78
2022-08-05T17:30:50.440Z,100900.97
2022-08-05T17:33:22.001Z,100897.66
2022-08-05T17:36:08.809Z,100894.69
2022-08-05T17:38:42.223Z,100889.03
2022-08-05T17:42:18.347Z,100894.72
2022-08-05T17:44:00.498Z,100897.16
2022-08-05T17:46:30.693Z,100891.78
2022-08-05T17:49:00.174Z,100893.03
2022-08-05T17:51:40.105Z,100891.78
2022-08-05T17:54:09.587Z,100891.91
2022-08-05T17:56:38.454Z,100890.44
2022-08-05T17:59:07.192Z,100891.06
2022-08-05T18:01:42.644Z,100899.16
2022-08-05T18:04:20.997Z,100890.56
2022-08-05T18:06:51.670Z,100887.44
2022-08-05T18:09:21.471Z,100884.94
2022-08-05T18:11:52.606Z,100884.13
2022-08-05T18:14:21.588Z,100891.75
2022-08-05T18:16:52.456Z,100880.59
2022-08-05T18:19:22.860Z,100890.75
2022-08-05T18:22:07.291Z,100883.38
2022-08-05T18:24:36.945Z,100887.59
2022-08-05T18:27:05.942Z,100881.75
2022-08-05T18:29:41.750Z,100883.91
2022-08-05T18:32:12.926Z,100883.91
2022-08-05T18:34:43.030Z,100890.28
2022-08-05T18:37:16.829Z,100886.03
2022-08-05T18:41:52.727Z,100881.81
2022-08-05T18:42:50.973Z,100890.31
2022-08-05T18:45:21.171Z,100888.03
2022-08-05T18:47:56.758Z,100885.69
2022-08-05T18:50:46.496Z,100881.03
2022-08-05T18:53:22.837Z,100888.41
2022-08-05T18:55:53.792Z,100880.44
2022-08-05T18:58:28.677Z,100892.84
2022-08-05T19:00:58.175Z,100886.94
2022-08-05T19:03:55.571Z,100886.31
2022-08-05T19:06:22.115Z,100885.03
2022-08-05T19:09:04.163Z,100882.28
2022-08-05T19:11:37.136Z,100887.97
2022-08-05T19:14:38.029Z,100894.44
2022-08-05T19:17:12.916Z,100888.78
2022-08-05T19:19:46.435Z,100881.63
2022-08-05T19:22:17.260Z,100882.47
2022-08-05T19:24:54.685Z,100880.47
2022-08-05T19:27:30.222Z,100870.56
2022-08-05T19:29:59.459Z,100862.78
2022-08-05T19:32:28.468Z,100865.72
2022-08-05T19:34:57.902Z,100866.16
2022-08-05T19:37:29.980Z,100875.22
2022-08-05T19:40:17.772Z,100863.81
2022-08-05T19:43:04.465Z,100868.22
2022-08-05T19:45:36.934Z,100867.78
2022-08-05T19:48:06.927Z,100862.28
2022-08-05T19:50:43.788Z,100869.88
2022-08-05T19:53:13.046Z,100872.59
2022-08-05T19:56:15.228Z,100866.44
2022-08-05T19:58:31.765Z,100865.56
2022-08-05T20:01:27.215Z,100868.13
2022-08-05T20:03:57.459Z,100870.06
2022-08-05T20:06:29.012Z,100870.25
2022-08-05T20:09:02.044Z,100861.84
2022-08-05T20:11:48.267Z,100866.03
2022-08-05T20:14:26.637Z,100867.56
2022-08-05T20:16:56.066Z,100867.78
2022-08-05T20:19:25.165Z,100870.53
2022-08-05T20:22:05.005Z,100869.03
2022-08-05T20:24:34.565Z,100872.84
2022-08-05T20:27:11.644Z,100865.19
2022-08-05T20:29:40.529Z,100871.06
2022-08-05T20:32:10.348Z,100863.47
2022-08-05T20:34:41.505Z,100855.50
2022-08-05T20:37:18.170Z,100855.13
2022-08-05T20:39:59.096Z,100854.69
2022-08-05T20:42:29.239Z,100861.44
2022-08-05T20:44:57.901Z,100865.38
2022-08-05T20:47:32.073Z,100855.50
2022-08-05T20:50:02.087Z,100856.53
2022-08-05T20:52:31.507Z,100853.56
2022-08-05T20:55:56.198Z,100852.06
2022-08-05T20:57:51.063Z,100849.56
2022-08-05T21:00:44.239Z,100854.81
2022-08-05T21:03:08.926Z,100852.13
2022-08-05T21:05:53.873Z,100856.75
2022-08-05T21:08:26.595Z,100848.97
2022-08-05T21:11:10.085Z,100852.53
2022-08-05T21:13:56.137Z,100845.38
2022-08-05T21:16:29.938Z,100841.16
2022-08-05T21:19:00.881Z,100839.72
2022-08-05T21:21:39.053Z,100846.22
2022-08-05T21:24:13.369Z,100837.78
2022-08-05T21:26:53.532Z,100839.47
2022-08-05T21:29:32.135Z,100836.50
2022-08-05T21:32:02.727Z,100831.88
2022-08-05T21:34:32.974Z,100832.25
2022-08-05T21:37:05.148Z,100826.56
2022-08-05T21:39:34.727Z,100832.88
2022-08-05T21:42:30.767Z,100817.94
2022-08-05T21:44:59.889Z,100823.38
2022-08-05T21:47:55.683Z,100818.75
2022-08-05T21:50:18.149Z,100819.81
2022-08-05T21:52:47.360Z,100815.81
2022-08-05T21:55:17.372Z,100815.63
2022-08-05T21:57:46.510Z,100818.97
2022-08-05T22:00:18.667Z,100818.34
2022-08-05T22:02:47.806Z,100821.88
2022-08-05T22:05:16.485Z,100813.28
2022-08-05T22:07:58.190Z,100810.72
2022-08-05T22:10:29.207Z,100807.53
2022-08-05T22:13:08.735Z,100807.66
2022-08-05T22:16:00.887Z,100802.81
2022-08-05T22:18:31.410Z,100798.44
2022-08-05T22:21:00.595Z,100805.16
2022-08-05T22:24:02.764Z,100802.66
2022-08-05T22:26:50.780Z,100799.88
2022-08-05T22:29:26.359Z,100803.06
2022-08-05T22:32:02.786Z,100795.78
2022-08-05T22:34:33.183Z,100795.97
2022-08-05T22:37:03.745Z,100797.28
2022-08-05T22:39:34.740Z,100793.25
2022-08-05T22:42:11.142Z,100786.47
2022-08-05T22:44:48.604Z,100787.78
2022-08-05T22:47:29.613Z,100782.69
2022-08-05T22:50:20.850Z,100786.66
2022-08-05T22:52:49.831Z,100776.63
2022-08-05T22:55:21.402Z,100787.50
2022-08-05T22:57:50.903Z,100776.34
2022-08-05T23:00:21.386Z,100771.66
2022-08-05T23:02:53.743Z,100770.63
2022-08-05T23:05:23.200Z,100773.59
2022-08-05T23:07:52.132Z,100772.53
2022-08-05T23:10:23.679Z,100762.44
2022-08-05T23:12:54.492Z,100768.72
2022-08-05T23:15:29.282Z,100771.00
2022-08-05T23:18:03.299Z,100760.06
2022-08-05T23:20:37.015Z,100763.81
2022-08-05T23:23:08.202Z,100760.66
2022-08-05T23:25:51.777Z,100762.50
2022-08-05T23:28:28.958Z,100756.38
2022-08-05T23:31:16.683Z,100758.69
2022-08-05T23:34:05.044Z,100751.09
2022-08-05T23:36:40.017Z,100761.19
2022-08-05T23:39:17.234Z,100750.63
2022-08-05T23:41:56.292Z,100752.97
2022-08-05T23:44:31.210Z,100749.78
2022-08-05T23:47:02.627Z,100747.53
2022-08-05T23:49:46.377Z,100745.22
2022-08-05T23:52:35.760Z,100741.84
2022-08-05T23:55:08.994Z,100734.47
2022-08-05T23:57:38.182Z,100737.63
